sensor_id;sensor_type;location;lat;lon;timestamp;pressure;altitude;pressure_sealevel;temperature;humidity
64340;BME280;63709;53.258;-8.814;2023-03-13T00:01:33;98057.69;;;15.51;100.00
64340;BME280;63709;53.258;-8.814;2023-03-13T00:03:59;98046.44;;;15.60;100.00
64340;BME280;63709;53.258;-8.814;2023-03-13T00:06:26;98050.59;;;15.56;100.00
64340;BME280;63709;53.258;-8.814;2023-03-13T00:08:53;98047.66;;;15.64;100.00
64340;BME280;63709;53.258;-8.814;2023-03-13T00:11:25;98044.13;;;15.70;100.00
64340;BME280;63709;53.258;-8.814;2023-03-13T00:13:54;98042.56;;;15.49;100.00
64340;BME280;63709;53.258;-8.814;2023-03-13T00:16:21;98041.56;;;15.51;100.00
64340;BME280;63709;53.258;-8.814;2023-03-13T00:18:50;98037.13;;;15.63;100.00
64340;BME280;63709;53.258;-8.814;2023-03-13T00:21:17;98037.38;;;15.55;100.00
64340;BME280;63709;53.258;-8.814;2023-03-13T00:23:44;98027.69;;;15.54;100.00
64340;BME280;63709;53.258;-8.814;2023-03-13T00:26:11;98035.47;;;15.62;100.00
64340;BME280;63709;53.258;-8.814;2023-03-13T00:28:37;98034.44;;;15.63;100.00
64340;BME280;63709;53.258;-8.814;2023-03-13T00:31:05;98020.75;;;15.71;100.00
64340;BME280;63709;53.258;-8.814;2023-03-13T00:33:32;98030.69;;;15.70;100.00
64340;BME280;63709;53.258;-8.814;2023-03-13T00:35:59;98024.72;;;15.68;100.00
64340;BME280;63709;53.258;-8.814;2023-03-13T00:38:28;98032.41;;;15.58;100.00
64340;BME280;63709;53.258;-8.814;2023-03-13T00:41:01;98025.34;;;15.57;100.00
64340;BME280;63709;53.258;-8.814;2023-03-13T00:43:26;98018.84;;;15.40;100.00
64340;BME280;63709;53.258;-8.814;2023-03-13T00:45:52;98019.94;;;15.32;100.00
64340;BME280;63709;53.258;-8.814;2023-03-13T00:48:19;98012.06;;;15.31;100.00
64340;BME280;63709;53.258;-8.814;2023-03-13T00:50:44;98010.06;;;15.19;100.00
64340;BME280;63709;53.258;-8.814;2023-03-13T00:53:10;97996.84;;;15.24;100.00
64340;BME280;63709;53.258;-8.814;2023-03-13T00:55:37;98003.28;;;15.17;100.00
64340;BME280;63709;53.258;-8.814;2023-03-13T00:58:02;97997.00;;;15.30;100.00
64340;BME280;63709;53.258;-8.814;2023-03-13T01:00:27;97998.53;;;15.12;100.00
64340;BME280;63709;53.258;-8.814;2023-03-13T01:02:53;97985.88;;;15.19;100.00
64340;BME280;63709;53.258;-8.814;2023-03-13T01:05:19;97985.38;;;14.97;100.00
64340;BME280;63709;53.258;-8.814;2023-03-13T01:07:45;97982.84;;;15.09;100.00
64340;BME280;63709;53.258;-8.814;2023-03-13T01:10:11;97981.19;;;15.08;100.00
64340;BME280;63709;53.258;-8.814;2023-03-13T01:12:37;97975.41;;;15.05;100.00
64340;BME280;63709;53.258;-8.814;2023-03-13T01:15:03;97972.13;;;15.09;100.00
64340;BME280;63709;53.258;-8.814;2023-03-13T01:17:29;97972.28;;;15.14;100.00
64340;BME280;63709;53.258;-8.814;2023-03-13T01:19:55;97973.66;;;15.23;100.00
64340;BME280;63709;53.258;-8.814;2023-03-13T01:22:21;97973.91;;;15.15;100.00
64340;BME280;63709;53.258;-8.814;2023-03-13T01:24:47;97964.25;;;15.08;100.00
64340;BME280;63709;53.258;-8.814;2023-03-13T01:27:16;97959.22;;;15.24;100.00
64340;BME280;63709;53.258;-8.814;2023-03-13T01:29:42;97950.50;;;15.29;100.00
64340;BME280;63709;53.258;-8.814;2023-03-13T01:32:07;97940.59;;;15.23;100.00
64340;BME280;63709;53.258;-8.814;2023-03-13T01:34:33;97938.56;;;15.18;100.00
64340;BME280;63709;53.258;-8.814;2023-03-13T01:37:00;97933.03;;;15.13;100.00
64340;BME280;63709;53.258;-8.814;2023-03-13T01:39:26;97932.38;;;15.18;100.00
64340;BME280;63709;53.258;-8.814;2023-03-13T01:41:52;97926.44;;;15.09;100.00
64340;BME280;63709;53.258;-8.814;2023-03-13T01:44:22;97919.63;;;15.07;100.00
64340;BME280;63709;53.258;-8.814;2023-03-13T01:46:48;97913.59;;;15.11;100.00
64340;BME280;63709;53.258;-8.814;2023-03-13T01:49:24;97910.78;;;14.99;100.00
64340;BME280;63709;53.258;-8.814;2023-03-13T01:51:53;97898.81;;;15.02;100.00
64340;BME280;63709;53.258;-8.814;2023-03-13T01:56:50;97892.34;;;15.10;100.00
64340;BME280;63709;53.258;-8.814;2023-03-13T01:59:18;97886.59;;;15.06;100.00
64340;BME280;63709;53.258;-8.814;2023-03-13T02:01:46;97888.00;;;15.09;100.00
64340;BME280;63709;53.258;-8.814;2023-03-13T02:04:13;97883.16;;;14.92;100.00
64340;BME280;63709;53.258;-8.814;2023-03-13T02:06:41;97877.09;;;15.04;100.00
64340;BME280;63709;53.258;-8.814;2023-03-13T02:09:11;97883.50;;;15.03;100.00
64340;BME280;63709;53.258;-8.814;2023-03-13T02:14:06;97885.97;;;15.04;100.00
64340;BME280;63709;53.258;-8.814;2023-03-13T02:16:33;97870.19;;;15.14;100.00
64340;BME280;63709;53.258;-8.814;2023-03-13T02:18:59;97869.19;;;15.09;100.00
64340;BME280;63709;53.258;-8.814;2023-03-13T02:24:43;97853.47;;;15.12;100.00
64340;BME280;63709;53.258;-8.814;2023-03-13T02:26:41;97860.31;;;15.08;100.00
64340;BME280;63709;53.258;-8.814;2023-03-13T02:29:07;97853.66;;;15.17;100.00
64340;BME280;63709;53.258;-8.814;2023-03-13T02:31:34;97842.00;;;15.23;100.00
64340;BME280;63709;53.258;-8.814;2023-03-13T02:33:59;97836.44;;;15.25;100.00
64340;BME280;63709;53.258;-8.814;2023-03-13T02:36:25;97839.31;;;15.23;100.00
64340;BME280;63709;53.258;-8.814;2023-03-13T02:38:55;97832.94;;;15.24;100.00
64340;BME280;63709;53.258;-8.814;2023-03-13T02:41:25;97824.72;;;15.13;100.00
64340;BME280;63709;53.258;-8.814;2023-03-13T02:43:50;97819.53;;;15.18;100.00
64340;BME280;63709;53.258;-8.814;2023-03-13T02:46:18;97816.31;;;15.09;100.00
64340;BME280;63709;53.258;-8.814;2023-03-13T02:48:49;97812.16;;;15.13;100.00
64340;BME280;63709;53.258;-8.814;2023-03-13T02:53:41;97790.09;;;15.05;100.00
64340;BME280;63709;53.258;-8.814;2023-03-13T02:56:07;97790.28;;;15.10;100.00
64340;BME280;63709;53.258;-8.814;2023-03-13T02:58:42;97797.03;;;15.12;100.00
64340;BME280;63709;53.258;-8.814;2023-03-13T03:01:09;97783.91;;;15.04;100.00
64340;BME280;63709;53.258;-8.814;2023-03-13T03:03:35;97784.25;;;15.14;100.00
64340;BME280;63709;53.258;-8.814;2023-03-13T03:06:02;97780.50;;;15.15;100.00
64340;BME280;63709;53.258;-8.814;2023-03-13T03:08:27;97775.13;;;15.15;100.00
64340;BME280;63709;53.258;-8.814;2023-03-13T03:10:53;97762.75;;;15.14;100.00
64340;BME280;63709;53.258;-8.814;2023-03-13T03:13:20;97762.31;;;15.17;100.00
64340;BME280;63709;53.258;-8.814;2023-03-13T03:15:46;97760.25;;;15.13;100.00
64340;BME280;63709;53.258;-8.814;2023-03-13T03:18:12;97759.81;;;15.16;100.00
64340;BME280;63709;53.258;-8.814;2023-03-13T03:20:38;97746.28;;;15.04;100.00
64340;BME280;63709;53.258;-8.814;2023-03-13T03:23:04;97745.03;;;15.07;100.00
64340;BME280;63709;53.258;-8.814;2023-03-13T03:25:29;97748.41;;;15.02;100.00
64340;BME280;63709;53.258;-8.814;2023-03-13T03:27:56;97760.34;;;15.06;100.00
64340;BME280;63709;53.258;-8.814;2023-03-13T03:30:21;97761.22;;;15.00;100.00
64340;BME280;63709;53.258;-8.814;2023-03-13T03:32:46;97740.31;;;14.77;100.00
64340;BME280;63709;53.258;-8.814;2023-03-13T03:35:14;97738.94;;;14.68;100.00
64340;BME280;63709;53.258;-8.814;2023-03-13T03:37:39;97721.50;;;14.52;100.00
64340;BME280;63709;53.258;-8.814;2023-03-13T03:40:05;97718.63;;;14.47;100.00
64340;BME280;63709;53.258;-8.814;2023-03-13T03:42:32;97714.94;;;14.41;100.00
64340;BME280;63709;53.258;-8.814;2023-03-13T03:44:58;97693.59;;;14.21;100.00
64340;BME280;63709;53.258;-8.814;2023-03-13T03:47:24;97704.31;;;14.28;100.00
64340;BME280;63709;53.258;-8.814;2023-03-13T03:49:49;97701.81;;;14.26;100.00
64340;BME280;63709;53.258;-8.814;2023-03-13T03:52:15;97701.38;;;14.29;100.00
64340;BME280;63709;53.258;-8.814;2023-03-13T03:54:41;97697.53;;;14.19;100.00
64340;BME280;63709;53.258;-8.814;2023-03-13T03:57:06;97691.19;;;14.13;100.00
64340;BME280;63709;53.258;-8.814;2023-03-13T03:59:33;97687.75;;;13.99;100.00
64340;BME280;63709;53.258;-8.814;2023-03-13T04:02:00;97680.47;;;14.07;100.00
64340;BME280;63709;53.258;-8.814;2023-03-13T04:04:25;97682.97;;;14.01;100.00
64340;BME280;63709;53.258;-8.814;2023-03-13T04:06:51;97674.72;;;14.03;100.00
64340;BME280;63709;53.258;-8.814;2023-03-13T04:09:17;97681.59;;;13.92;100.00
64340;BME280;63709;53.258;-8.814;2023-03-13T04:11:43;97683.66;;;13.90;100.00
64340;BME280;63709;53.258;-8.814;2023-03-13T04:14:08;97686.72;;;13.94;100.00
64340;BME280;63709;53.258;-8.814;2023-03-13T04:16:35;97687.34;;;13.96;100.00
64340;BME280;63709;53.258;-8.814;2023-03-13T04:19:00;97690.44;;;13.93;100.00
64340;BME280;63709;53.258;-8.814;2023-03-13T04:21:27;97689.66;;;13.86;100.00
64340;BME280;63709;53.258;-8.814;2023-03-13T04:23:52;97687.63;;;13.81;100.00
64340;BME280;63709;53.258;-8.814;2023-03-13T04:26:19;97689.41;;;13.94;100.00
64340;BME280;63709;53.258;-8.814;2023-03-13T04:28:45;97697.03;;;13.97;100.00
64340;BME280;63709;53.258;-8.814;2023-03-13T04:31:11;97696.00;;;13.98;100.00
64340;BME280;63709;53.258;-8.814;2023-03-13T04:33:38;97690.41;;;13.99;100.00
64340;BME280;63709;53.258;-8.814;2023-03-13T04:36:03;97692.09;;;13.94;100.00
64340;BME280;63709;53.258;-8.814;2023-03-13T04:38:29;97691.66;;;13.97;100.00
64340;BME280;63709;53.258;-8.814;2023-03-13T04:40:54;97697.91;;;13.91;100.00
64340;BME280;63709;53.258;-8.814;2023-03-13T04:43:20;97698.88;;;13.96;100.00
64340;BME280;63709;53.258;-8.814;2023-03-13T04:45:45;97693.59;;;13.83;100.00
64340;BME280;63709;53.258;-8.814;2023-03-13T04:48:11;97694.38;;;13.90;100.00
64340;BME280;63709;53.258;-8.814;2023-03-13T04:50:36;97694.22;;;13.78;100.00
64340;BME280;63709;53.258;-8.814;2023-03-13T04:53:01;97695.22;;;13.91;100.00
64340;BME280;63709;53.258;-8.814;2023-03-13T04:55:28;97699.13;;;13.95;100.00
64340;BME280;63709;53.258;-8.814;2023-03-13T04:57:54;97692.28;;;13.99;100.00
64340;BME280;63709;53.258;-8.814;2023-03-13T05:00:19;97697.66;;;13.99;100.00
64340;BME280;63709;53.258;-8.814;2023-03-13T05:02:44;97701.16;;;13.99;100.00
64340;BME280;63709;53.258;-8.814;2023-03-13T05:05:10;97698.44;;;14.06;100.00
64340;BME280;63709;53.258;-8.814;2023-03-13T05:07:36;97699.69;;;14.03;100.00
64340;BME280;63709;53.258;-8.814;2023-03-13T05:10:03;97703.25;;;13.91;100.00
64340;BME280;63709;53.258;-8.814;2023-03-13T05:12:28;97703.22;;;13.97;100.00
64340;BME280;63709;53.258;-8.814;2023-03-13T05:14:54;97702.53;;;14.09;100.00
64340;BME280;63709;53.258;-8.814;2023-03-13T05:17:19;97705.03;;;14.03;100.00
64340;BME280;63709;53.258;-8.814;2023-03-13T05:19:46;97700.88;;;14.08;100.00
64340;BME280;63709;53.258;-8.814;2023-03-13T05:22:11;97706.47;;;14.06;100.00
64340;BME280;63709;53.258;-8.814;2023-03-13T05:24:38;97703.16;;;14.11;100.00
64340;BME280;63709;53.258;-8.814;2023-03-13T05:27:03;97693.41;;;14.16;100.00
64340;BME280;63709;53.258;-8.814;2023-03-13T05:29:29;97689.97;;;14.09;100.00
64340;BME280;63709;53.258;-8.814;2023-03-13T05:31:54;97692.84;;;14.08;100.00
64340;BME280;63709;53.258;-8.814;2023-03-13T05:34:20;97689.75;;;14.11;100.00
64340;BME280;63709;53.258;-8.814;2023-03-13T05:36:46;97680.06;;;14.10;100.00
64340;BME280;63709;53.258;-8.814;2023-03-13T05:39:12;97693.28;;;14.04;100.00
64340;BME280;63709;53.258;-8.814;2023-03-13T05:41:37;97690.41;;;14.06;100.00
64340;BME280;63709;53.258;-8.814;2023-03-13T05:44:02;97687.69;;;14.13;100.00
64340;BME280;63709;53.258;-8.814;2023-03-13T05:46:28;97678.19;;;14.10;100.00
64340;BME280;63709;53.258;-8.814;2023-03-13T05:48:54;97680.00;;;14.16;100.00
64340;BME280;63709;53.258;-8.814;2023-03-13T05:51:20;97687.03;;;14.17;100.00
64340;BME280;63709;53.258;-8.814;2023-03-13T05:53:47;97682.13;;;14.08;100.00
64340;BME280;63709;53.258;-8.814;2023-03-13T05:56:13;97693.03;;;14.13;100.00
64340;BME280;63709;53.258;-8.814;2023-03-13T05:58:39;97676.75;;;14.08;100.00
64340;BME280;63709;53.258;-8.814;2023-03-13T06:01:09;97681.84;;;14.16;100.00
64340;BME280;63709;53.258;-8.814;2023-03-13T06:03:35;97682.25;;;14.19;100.00
64340;BME280;63709;53.258;-8.814;2023-03-13T06:06:01;97679.63;;;14.13;100.00
64340;BME280;63709;53.258;-8.814;2023-03-13T06:08:27;97680.44;;;14.13;100.00
64340;BME280;63709;53.258;-8.814;2023-03-13T06:10:53;97672.44;;;14.07;100.00
64340;BME280;63709;53.258;-8.814;2023-03-13T06:13:19;97683.75;;;14.09;100.00
64340;BME280;63709;53.258;-8.814;2023-03-13T06:15:52;97681.66;;;14.17;100.00
64340;BME280;63709;53.258;-8.814;2023-03-13T06:18:19;97680.63;;;14.18;100.00
64340;BME280;63709;53.258;-8.814;2023-03-13T06:20:45;97671.53;;;14.19;100.00
64340;BME280;63709;53.258;-8.814;2023-03-13T06:23:12;97671.78;;;14.11;100.00
64340;BME280;63709;53.258;-8.814;2023-03-13T06:25:37;97674.31;;;14.06;100.00
64340;BME280;63709;53.258;-8.814;2023-03-13T06:28:03;97674.84;;;14.15;100.00
64340;BME280;63709;53.258;-8.814;2023-03-13T06:30:29;97671.53;;;14.19;100.00
64340;BME280;63709;53.258;-8.814;2023-03-13T06:32:55;97674.28;;;14.13;100.00
64340;BME280;63709;53.258;-8.814;2023-03-13T06:35:20;97681.66;;;14.17;100.00
64340;BME280;63709;53.258;-8.814;2023-03-13T06:37:47;97676.09;;;14.12;100.00
64340;BME280;63709;53.258;-8.814;2023-03-13T06:40:13;97675.91;;;14.14;100.00
64340;BME280;63709;53.258;-8.814;2023-03-13T06:42:39;97682.69;;;14.16;100.00
64340;BME280;63709;53.258;-8.814;2023-03-13T06:45:06;97689.28;;;14.20;100.00
64340;BME280;63709;53.258;-8.814;2023-03-13T06:47:31;97685.75;;;14.20;100.00
64340;BME280;63709;53.258;-8.814;2023-03-13T06:49:58;97692.16;;;14.19;100.00
64340;BME280;63709;53.258;-8.814;2023-03-13T06:52:24;97699.00;;;14.15;100.00
64340;BME280;63709;53.258;-8.814;2023-03-13T06:54:50;97704.09;;;14.23;100.00
64340;BME280;63709;53.258;-8.814;2023-03-13T06:57:16;97698.16;;;14.21;100.00
64340;BME280;63709;53.258;-8.814;2023-03-13T06:59:41;97698.09;;;14.27;100.00
64340;BME280;63709;53.258;-8.814;2023-03-13T07:02:11;97694.19;;;14.23;100.00
64340;BME280;63709;53.258;-8.814;2023-03-13T07:04:37;97695.06;;;14.17;100.00
64340;BME280;63709;53.258;-8.814;2023-03-13T07:07:04;97695.28;;;14.16;100.00
64340;BME280;63709;53.258;-8.814;2023-03-13T07:09:29;97698.16;;;14.21;100.00
64340;BME280;63709;53.258;-8.814;2023-03-13T07:11:56;97702.59;;;14.34;100.00
64340;BME280;63709;53.258;-8.814;2023-03-13T07:14:23;97702.63;;;14.27;100.00
64340;BME280;63709;53.258;-8.814;2023-03-13T07:16:49;97701.38;;;14.29;100.00
64340;BME280;63709;53.258;-8.814;2023-03-13T07:19:15;97703.44;;;14.27;100.00
64340;BME280;63709;53.258;-8.814;2023-03-13T07:21:40;97708.66;;;14.22;100.00
64340;BME280;63709;53.258;-8.814;2023-03-13T07:24:06;97707.59;;;14.23;100.00
64340;BME280;63709;53.258;-8.814;2023-03-13T07:26:38;97702.25;;;14.23;100.00
64340;BME280;63709;53.258;-8.814;2023-03-13T07:29:04;97704.06;;;14.29;100.00
64340;BME280;63709;53.258;-8.814;2023-03-13T07:31:29;97702.88;;;14.19;100.00
64340;BME280;63709;53.258;-8.814;2023-03-13T07:33:58;97705.13;;;14.28;100.00
64340;BME280;63709;53.258;-8.814;2023-03-13T07:36:23;97705.53;;;14.25;100.00
64340;BME280;63709;53.258;-8.814;2023-03-13T07:38:52;97704.06;;;14.29;100.00
64340;BME280;63709;53.258;-8.814;2023-03-13T07:41:18;97716.41;;;14.37;100.00
64340;BME280;63709;53.258;-8.814;2023-03-13T07:43:44;97718.09;;;14.32;100.00
64340;BME280;63709;53.258;-8.814;2023-03-13T07:46:11;97714.75;;;14.36;100.00
64340;BME280;63709;53.258;-8.814;2023-03-13T07:48:38;97718.28;;;14.37;100.00
64340;BME280;63709;53.258;-8.814;2023-03-13T07:51:05;97720.31;;;14.35;100.00
64340;BME280;63709;53.258;-8.814;2023-03-13T07:53:31;97718.66;;;14.40;100.00
64340;BME280;63709;53.258;-8.814;2023-03-13T07:55:57;97721.56;;;14.39;100.00
64340;BME280;63709;53.258;-8.814;2023-03-13T07:58:24;97719.06;;;14.44;100.00
64340;BME280;63709;53.258;-8.814;2023-03-13T08:00:50;97718.88;;;14.39;100.00
64340;BME280;63709;53.258;-8.814;2023-03-13T08:03:17;97724.84;;;14.41;100.00
64340;BME280;63709;53.258;-8.814;2023-03-13T08:08:13;97726.06;;;14.51;100.00
64340;BME280;63709;53.258;-8.814;2023-03-13T08:10:39;97736.78;;;14.51;100.00
64340;BME280;63709;53.258;-8.814;2023-03-13T08:13:06;97734.25;;;14.57;100.00
64340;BME280;63709;53.258;-8.814;2023-03-13T08:15:32;97738.81;;;14.56;100.00
64340;BME280;63709;53.258;-8.814;2023-03-13T08:17:59;97741.88;;;14.60;100.00
64340;BME280;63709;53.258;-8.814;2023-03-13T08:20:24;97741.91;;;14.53;100.00
64340;BME280;63709;53.258;-8.814;2023-03-13T08:22:50;97748.72;;;14.56;100.00
64340;BME280;63709;53.258;-8.814;2023-03-13T08:25:17;97760.25;;;14.63;100.00
64340;BME280;63709;53.258;-8.814;2023-03-13T08:27:42;97757.00;;;14.54;100.00
64340;BME280;63709;53.258;-8.814;2023-03-13T08:30:09;97761.31;;;14.55;100.00
64340;BME280;63709;53.258;-8.814;2023-03-13T08:32:34;97760.31;;;14.49;100.00
64340;BME280;63709;53.258;-8.814;2023-03-13T08:35:00;97764.00;;;14.48;100.00
64340;BME280;63709;53.258;-8.814;2023-03-13T08:37:25;97761.16;;;14.50;100.00
64340;BME280;63709;53.258;-8.814;2023-03-13T08:39:51;97764.03;;;14.42;100.00
64340;BME280;63709;53.258;-8.814;2023-03-13T08:42:18;97762.78;;;14.51;100.00
64340;BME280;63709;53.258;-8.814;2023-03-13T08:44:44;97767.94;;;14.46;100.00
64340;BME280;63709;53.258;-8.814;2023-03-13T08:47:09;97772.47;;;14.52;100.00
64340;BME280;63709;53.258;-8.814;2023-03-13T08:49:34;97779.25;;;14.61;100.00
64340;BME280;63709;53.258;-8.814;2023-03-13T08:52:00;97774.75;;;14.55;100.00
64340;BME280;63709;53.258;-8.814;2023-03-13T08:54:25;97780.94;;;14.56;100.00
64340;BME280;63709;53.258;-8.814;2023-03-13T08:56:51;97784.28;;;14.51;100.00
64340;BME280;63709;53.258;-8.814;2023-03-13T08:59:17;97789.22;;;14.54;100.00
64340;BME280;63709;53.258;-8.814;2023-03-13T09:01:44;97796.03;;;14.50;100.00
64340;BME280;63709;53.258;-8.814;2023-03-13T09:04:09;97795.41;;;14.48;100.00
64340;BME280;63709;53.258;-8.814;2023-03-13T09:06:35;97800.38;;;14.51;100.00
64340;BME280;63709;53.258;-8.814;2023-03-13T09:09:03;97796.88;;;14.50;100.00
64340;BME280;63709;53.258;-8.814;2023-03-13T09:11:29;97809.03;;;14.46;100.00
64340;BME280;63709;53.258;-8.814;2023-03-13T09:14:01;97809.88;;;14.40;100.00
64340;BME280;63709;53.258;-8.814;2023-03-13T09:16:33;97809.84;;;14.47;100.00
64340;BME280;63709;53.258;-8.814;2023-03-13T09:18:59;97808.19;;;14.52;100.00
64340;BME280;63709;53.258;-8.814;2023-03-13T09:21:28;97812.31;;;14.55;100.00
64340;BME280;63709;53.258;-8.814;2023-03-13T09:23:54;97815.59;;;14.57;100.00
64340;BME280;63709;53.258;-8.814;2023-03-13T09:26:21;97813.09;;;14.62;100.00
64340;BME280;63709;53.258;-8.814;2023-03-13T09:28:46;97826.50;;;14.69;100.00
64340;BME280;63709;53.258;-8.814;2023-03-13T09:31:20;97826.25;;;14.70;100.00
64340;BME280;63709;53.258;-8.814;2023-03-13T09:33:47;97821.66;;;14.84;100.00
64340;BME280;63709;53.258;-8.814;2023-03-13T09:36:12;97822.88;;;14.82;100.00
64340;BME280;63709;53.258;-8.814;2023-03-13T09:38:39;97829.91;;;14.83;100.00
64340;BME280;63709;53.258;-8.814;2023-03-13T09:44:06;97825.28;;;14.96;100.00
64340;BME280;63709;53.258;-8.814;2023-03-13T09:48:59;97825.44;;;15.01;100.00
64340;BME280;63709;53.258;-8.814;2023-03-13T09:51:28;97827.31;;;15.01;100.00
64340;BME280;63709;53.258;-8.814;2023-03-13T09:56:43;97835.47;;;15.13;100.00
64340;BME280;63709;53.258;-8.814;2023-03-13T10:02:12;97827.50;;;15.06;100.00
64340;BME280;63709;53.258;-8.814;2023-03-13T10:04:52;97851.50;;;15.26;100.00
64340;BME280;63709;53.258;-8.814;2023-03-13T10:07:22;97859.56;;;15.26;100.00
64340;BME280;63709;53.258;-8.814;2023-03-13T10:09:48;97856.44;;;15.29;100.00
64340;BME280;63709;53.258;-8.814;2023-03-13T10:12:22;97855.44;;;15.23;100.00
64340;BME280;63709;53.258;-8.814;2023-03-13T10:17:37;97855.28;;;15.18;100.00
64340;BME280;63709;53.258;-8.814;2023-03-13T10:22:35;97867.56;;;15.08;100.00
64340;BME280;63709;53.258;-8.814;2023-03-13T10:25:18;97874.72;;;15.20;100.00
64340;BME280;63709;53.258;-8.814;2023-03-13T10:27:49;97884.59;;;15.20;100.00
64340;BME280;63709;53.258;-8.814;2023-03-13T10:32:45;97882.19;;;15.12;100.00
64340;BME280;63709;53.258;-8.814;2023-03-13T10:35:11;97886.09;;;15.16;100.00
64340;BME280;63709;53.258;-8.814;2023-03-13T10:37:44;97886.44;;;15.26;100.00
64340;BME280;63709;53.258;-8.814;2023-03-13T10:40:14;97886.56;;;15.38;100.00
64340;BME280;63709;53.258;-8.814;2023-03-13T10:42:44;97883.88;;;15.38;100.00
64340;BME280;63709;53.258;-8.814;2023-03-13T10:45:13;97888.09;;;15.52;100.00
64340;BME280;63709;53.258;-8.814;2023-03-13T10:50:33;97894.94;;;15.80;100.00
64340;BME280;63709;53.258;-8.814;2023-03-13T10:53:06;97893.59;;;15.89;100.00
64340;BME280;63709;53.258;-8.814;2023-03-13T10:55:32;97891.38;;;16.04;100.00
64340;BME280;63709;53.258;-8.814;2023-03-13T10:57:58;97893.50;;;16.02;100.00
64340;BME280;63709;53.258;-8.814;2023-03-13T11:00:29;97895.56;;;16.00;100.00
64340;BME280;63709;53.258;-8.814;2023-03-13T11:02:58;97899.69;;;16.03;100.00
64340;BME280;63709;53.258;-8.814;2023-03-13T11:05:38;97905.34;;;15.94;100.00
64340;BME280;63709;53.258;-8.814;2023-03-13T11:10:51;97904.41;;;15.82;100.00
64340;BME280;63709;53.258;-8.814;2023-03-13T11:15:56;97919.50;;;15.58;100.00
64340;BME280;63709;53.258;-8.814;2023-03-13T11:21:14;97912.13;;;15.47;100.00
64340;BME280;63709;53.258;-8.814;2023-03-13T11:23:46;97918.91;;;15.24;100.00
64340;BME280;63709;53.258;-8.814;2023-03-13T11:26:27;97922.97;;;15.34;100.00
64340;BME280;63709;53.258;-8.814;2023-03-13T11:29:02;97939.00;;;15.15;100.00
64340;BME280;63709;53.258;-8.814;2023-03-13T11:31:31;97928.78;;;14.99;100.00
64340;BME280;63709;53.258;-8.814;2023-03-13T11:37:02;97997.38;;;14.95;100.00
64340;BME280;63709;53.258;-8.814;2023-03-13T11:42:09;98001.19;;;14.61;100.00
64340;BME280;63709;53.258;-8.814;2023-03-13T11:44:47;98014.63;;;14.34;100.00
64340;BME280;63709;53.258;-8.814;2023-03-13T11:47:32;98030.34;;;14.17;100.00
64340;BME280;63709;53.258;-8.814;2023-03-13T11:55:36;98038.56;;;13.69;100.00
64340;BME280;63709;53.258;-8.814;2023-03-13T11:58:19;98052.75;;;13.56;100.00
64340;BME280;63709;53.258;-8.814;2023-03-13T12:00:59;98058.75;;;13.65;100.00
64340;BME280;63709;53.258;-8.814;2023-03-13T12:05:55;98073.59;;;13.61;100.00
64340;BME280;63709;53.258;-8.814;2023-03-13T12:08:33;98075.75;;;13.24;100.00
64340;BME280;63709;53.258;-8.814;2023-03-13T12:11:07;98090.31;;;13.22;100.00
64340;BME280;63709;53.258;-8.814;2023-03-13T12:13:47;98094.50;;;13.24;100.00
64340;BME280;63709;53.258;-8.814;2023-03-13T12:16:15;98095.22;;;13.12;100.00
64340;BME280;63709;53.258;-8.814;2023-03-13T12:18:44;98099.19;;;13.22;100.00
64340;BME280;63709;53.258;-8.814;2023-03-13T12:26:15;98112.06;;;13.40;100.00
64340;BME280;63709;53.258;-8.814;2023-03-13T12:28:51;98125.03;;;13.37;100.00
64340;BME280;63709;53.258;-8.814;2023-03-13T12:31:25;98118.69;;;13.51;100.00
64340;BME280;63709;53.258;-8.814;2023-03-13T12:36:39;98135.78;;;13.43;100.00
64340;BME280;63709;53.258;-8.814;2023-03-13T12:41:39;98149.63;;;13.60;100.00
64340;BME280;63709;53.258;-8.814;2023-03-13T12:44:10;98149.25;;;13.22;100.00
64340;BME280;63709;53.258;-8.814;2023-03-13T13:00:00;98185.25;;;13.13;100.00
64340;BME280;63709;53.258;-8.814;2023-03-13T13:02:30;98190.84;;;13.18;100.00
64340;BME280;63709;53.258;-8.814;2023-03-13T13:04:57;98188.75;;;13.13;100.00
64340;BME280;63709;53.258;-8.814;2023-03-13T13:07:26;98181.72;;;13.12;100.00
64340;BME280;63709;53.258;-8.814;2023-03-13T13:12:25;98188.88;;;13.05;100.00
64340;BME280;63709;53.258;-8.814;2023-03-13T13:19:45;98221.81;;;12.99;100.00
64340;BME280;63709;53.258;-8.814;2023-03-13T13:24:58;98223.31;;;13.08;100.00
64340;BME280;63709;53.258;-8.814;2023-03-13T13:30:00;98233.00;;;13.09;100.00
64340;BME280;63709;53.258;-8.814;2023-03-13T13:32:39;98246.78;;;13.27;100.00
64340;BME280;63709;53.258;-8.814;2023-03-13T13:37:39;98257.19;;;13.22;100.00
64340;BME280;63709;53.258;-8.814;2023-03-13T13:42:54;98253.13;;;13.26;100.00
64340;BME280;63709;53.258;-8.814;2023-03-13T13:47:52;98243.28;;;13.05;100.00
64340;BME280;63709;53.258;-8.814;2023-03-13T13:50:37;98262.47;;;13.09;100.00
64340;BME280;63709;53.258;-8.814;2023-03-13T13:55:46;98270.56;;;13.44;100.00
64340;BME280;63709;53.258;-8.814;2023-03-13T13:58:20;98267.25;;;12.92;100.00
64340;BME280;63709;53.258;-8.814;2023-03-13T14:00:54;98285.16;;;13.13;100.00
64340;BME280;63709;53.258;-8.814;2023-03-13T14:03:24;98295.00;;;13.06;100.00
64340;BME280;63709;53.258;-8.814;2023-03-13T14:06:02;98302.59;;;13.24;100.00
64340;BME280;63709;53.258;-8.814;2023-03-13T14:08:36;98307.25;;;13.22;100.00
64340;BME280;63709;53.258;-8.814;2023-03-13T14:13:38;98310.75;;;13.22;100.00
64340;BME280;63709;53.258;-8.814;2023-03-13T14:16:20;98319.47;;;13.24;100.00
64340;BME280;63709;53.258;-8.814;2023-03-13T14:18:46;98329.44;;;13.37;100.00
64340;BME280;63709;53.258;-8.814;2023-03-13T14:21:12;98334.09;;;13.50;100.00
64340;BME280;63709;53.258;-8.814;2023-03-13T14:23:42;98344.13;;;13.69;100.00
64340;BME280;63709;53.258;-8.814;2023-03-13T14:28:39;98351.41;;;13.82;100.00
64340;BME280;63709;53.258;-8.814;2023-03-13T14:31:06;98357.28;;;13.99;100.00